Time;durP1;ratioP1;P1;durP2;ratioP2;P2;SDS_P1;SDS_P2;PMS_P1;PMS_P2;Temp;Humidity;BMP_temperature;BMP_pressure;BME280_temperature;BME280_humidity;BME280_pressure;Samples;Min_cycle;Max_cycle;Signal;HPM_P1;HPM_P2
2022/08/10 00:01:08;;;;;;;3.05;2.28;;;;;;;14.96;51.94;102874.09;5005326;28;20026;-64
2022/08/10 00:03:34;;;;;;;3.22;1.85;;;;;;;14.95;51.79;102872.38;4994216;28;20084;-64
2022/08/10 00:05:59;;;;;;;4.78;2.50;;;;;;;14.81;52.09;102871.88;5003314;28;20033;-64
2022/08/10 00:08:25;;;;;;;4.00;2.05;;;;;;;14.85;51.49;102878.78;5001421;28;20421;-63
2022/08/10 00:10:52;;;;;;;2.42;1.95;;;;;;;14.82;51.61;102884.13;5003261;28;20029;-64
2022/08/10 00:13:17;;;;;;;2.25;1.70;;;;;;;14.77;51.59;102882.50;5003160;28;20091;-64
2022/08/10 00:15:43;;;;;;;3.75;2.47;;;;;;;14.80;51.77;102888.56;5004792;28;20462;-63
2022/08/10 00:18:08;;;;;;;3.88;2.28;;;;;;;14.74;51.81;102882.53;5000988;28;20898;-64
2022/08/10 00:20:34;;;;;;;3.03;2.70;;;;;;;14.73;51.79;102888.72;5004397;28;20444;-64
2022/08/10 00:22:59;;;;;;;3.80;2.85;;;;;;;14.69;52.04;102894.97;4999658;28;20068;-64
2022/08/10 00:25:25;;;;;;;5.68;3.25;;;;;;;14.63;52.76;102889.00;5001970;28;20065;-64
2022/08/10 00:27:50;;;;;;;5.70;3.10;;;;;;;14.71;52.43;102887.91;5000654;28;20710;-64
2022/08/10 00:30:15;;;;;;;7.80;4.07;;;;;;;14.66;52.72;102886.31;5001740;28;20030;-64
2022/08/10 00:32:41;;;;;;;7.22;3.20;;;;;;;14.67;53.06;102888.03;5000647;28;20042;-64
2022/08/10 00:35:07;;;;;;;8.05;3.63;;;;;;;14.73;52.97;102891.34;5001042;28;20158;-64
2022/08/10 00:37:32;;;;;;;6.55;4.53;;;;;;;14.60;52.76;102882.03;5005614;28;20045;-64
2022/08/10 00:39:58;;;;;;;6.30;3.45;;;;;;;14.57;53.16;102884.78;5002217;28;20571;-64
2022/08/10 00:42:23;;;;;;;5.35;3.63;;;;;;;14.46;53.66;102892.06;5004016;28;20144;-64
2022/08/10 00:44:49;;;;;;;8.30;3.17;;;;;;;14.49;53.50;102886.72;5005341;28;20132;-64
2022/08/10 00:47:15;;;;;;;6.60;3.42;;;;;;;14.50;53.45;102884.06;5001258;28;20072;-63
2022/08/10 00:49:41;;;;;;;5.50;3.38;;;;;;;14.62;53.41;102888.13;5003990;28;20038;-64
2022/08/10 00:52:07;;;;;;;4.18;3.40;;;;;;;14.63;52.86;102879.31;5001084;28;20046;-65
2022/08/10 00:54:36;;;;;;;3.55;2.67;;;;;;;14.62;53.01;102887.28;5004933;28;20105;-65
2022/08/10 00:57:04;;;;;;;4.25;2.70;;;;;;;14.58;52.98;102886.47;4999300;28;20042;-66
2022/08/10 00:59:31;;;;;;;4.50;2.88;;;;;;;14.46;53.11;102892.06;5006006;28;20060;-65
2022/08/10 01:01:56;;;;;;;6.18;2.92;;;;;;;14.51;52.87;102892.81;5002256;28;20506;-65
2022/08/10 01:04:22;;;;;;;4.43;3.13;;;;;;;14.55;52.59;102891.84;5005135;28;20025;-64
2022/08/10 01:07:15;;;;;;;4.38;2.15;;;;;;;14.57;52.71;102887.41;5001631;28;20796;-68
2022/08/10 01:10:11;;;;;;;5.85;3.50;;;;;;;14.48;53.12;102890.25;5003335;28;20647;-67
2022/08/10 01:12:50;;;;;;;4.13;2.67;;;;;;;14.55;52.64;102892.69;5002730;28;20673;-69
2022/08/10 01:15:30;;;;;;;5.13;3.45;;;;;;;14.43;53.19;102887.72;4996828;28;20053;-69
2022/08/10 01:18:07;;;;;;;5.22;2.72;;;;;;;14.35;53.14;102881.75;5007351;28;20042;-67
2022/08/10 01:21:03;;;;;;;6.38;3.17;;;;;;;14.31;53.57;102880.09;5003528;28;20041;-68
2022/08/10 01:23:51;;;;;;;3.67;2.78;;;;;;;14.32;53.63;102877.44;5002202;28;20426;-68
2022/08/10 01:26:38;;;;;;;3.53;2.30;;;;;;;14.38;53.30;102876.41;5020001;28;20033;-68
2022/08/10 01:29:22;;;;;;;3.53;2.78;;;;;;;14.35;53.73;102880.00;4999662;28;20049;-68
2022/08/10 01:31:52;;;;;;;5.95;3.10;;;;;;;14.44;53.35;102876.31;5002373;28;20537;-67
2022/08/10 01:34:31;;;;;;;5.43;3.35;;;;;;;14.46;53.15;102873.66;5016989;28;20421;-68
2022/08/10 01:37:05;;;;;;;6.55;2.83;;;;;;;14.46;53.01;102874.50;5000108;28;20041;-68
2022/08/10 01:39:45;;;;;;;3.65;2.47;;;;;;;14.47;53.05;102872.72;5004211;28;20037;-68
2022/08/10 01:42:15;;;;;;;6.22;2.85;;;;;;;14.43;53.23;102871.94;5002204;28;20038;-68
2022/08/10 01:45:11;;;;;;;2.92;2.60;;;;;;;14.50;52.98;102875.28;5001405;28;20471;-66
2022/08/10 01:50:29;;;;;;;6.07;3.50;;;;;;;14.35;53.24;102874.72;5003133;28;20108;-66
2022/08/10 01:53:02;;;;;;;3.03;2.50;;;;;;;14.37;53.54;102874.69;5000528;28;20137;-66
2022/08/10 01:55:29;;;;;;;8.05;3.58;;;;;;;14.38;53.17;102863.25;5003689;28;20655;-66
2022/08/10 01:57:56;;;;;;;5.00;3.38;;;;;;;14.35;53.04;102864.22;5003178;28;20545;-66
2022/08/10 02:00:24;;;;;;;5.22;3.70;;;;;;;14.18;53.79;102874.25;5002679;28;20038;-66
2022/08/10 02:02:52;;;;;;;4.07;3.63;;;;;;;14.23;53.95;102869.78;5000729;28;20045;-67
2022/08/10 02:05:20;;;;;;;7.10;3.40;;;;;;;14.23;54.24;102869.78;5001616;28;20041;-66
2022/08/10 02:07:47;;;;;;;5.75;3.60;;;;;;;14.28;54.37;102872.28;5000464;28;20038;-65
2022/08/10 02:10:17;;;;;;;4.05;3.28;;;;;;;14.23;54.35;102872.41;5004705;28;20030;-66
2022/08/10 02:12:45;;;;;;;5.13;3.63;;;;;;;14.21;54.48;102866.31;5000040;28;20076;-66
2022/08/10 02:15:18;;;;;;;7.47;3.60;;;;;;;14.28;54.53;102865.25;5010189;28;20611;-67
2022/08/10 02:17:50;;;;;;;5.63;3.50;;;;;;;14.31;54.00;102867.81;4999619;28;20080;-68
2022/08/10 02:20:19;;;;;;;5.50;2.22;;;;;;;14.27;53.94;102860.88;5006083;28;20045;-67
2022/08/10 02:22:49;;;;;;;5.07;2.70;;;;;;;14.14;54.48;102865.59;4999292;28;20034;-67
2022/08/10 02:25:17;;;;;;;4.75;3.08;;;;;;;14.17;54.18;102863.81;5003019;28;20037;-67
2022/08/10 02:27:42;;;;;;;4.55;2.10;;;;;;;14.16;54.12;102865.53;4999966;28;20410;-67
2022/08/10 02:30:09;;;;;;;4.63;3.15;;;;;;;14.16;54.07;102865.53;5003506;28;20038;-67
2022/08/10 02:32:36;;;;;;;3.22;2.30;;;;;;;14.06;54.13;102864.03;5002756;28;20045;-67
2022/08/10 02:35:06;;;;;;;2.95;1.70;;;;;;;14.03;54.33;102862.34;5003310;28;20040;-67
2022/08/10 02:37:36;;;;;;;2.65;2.28;;;;;;;13.99;54.32;102865.09;5018115;28;20067;-72
2022/08/10 02:40:01;;;;;;;6.80;2.97;;;;;;;14.02;54.23;102865.00;5001942;28;20034;-72
2022/08/10 02:42:32;;;;;;;3.75;2.42;;;;;;;13.99;54.52;102859.84;5002763;28;20434;-71
2022/08/10 02:45:12;;;;;;;2.37;2.03;;;;;;;13.97;54.19;102862.50;5015192;28;20125;-65
2022/08/10 02:47:42;;;;;;;2.88;2.15;;;;;;;13.89;54.20;102852.13;5002707;28;20405;-66
2022/08/10 02:50:33;;;;;;;2.33;1.48;;;;;;;13.86;54.39;102860.09;5001904;28;20083;-65
2022/08/10 02:53:05;;;;;;;5.78;2.13;;;;;;;13.83;54.37;102854.03;5007388;28;20769;-64
2022/08/10 02:55:55;;;;;;;4.18;1.60;;;;;;;13.77;54.16;102854.19;5003687;28;20473;-68
2022/08/10 02:58:29;;;;;;;3.60;2.13;;;;;;;13.72;54.01;102851.66;5002010;28;20131;-68
2022/08/10 03:00:58;;;;;;;3.10;2.03;;;;;;;13.56;53.88;102844.97;5002462;28;20454;-68
2022/08/10 03:03:32;;;;;;;4.38;2.30;;;;;;;13.61;54.08;102848.41;5003466;28;20605;-68
2022/08/10 03:06:06;;;;;;;7.97;3.22;;;;;;;13.66;53.92;102852.66;5003816;28;20037;-68
2022/08/10 03:08:35;;;;;;;2.40;1.88;;;;;;;13.61;53.97;102851.91;4999949;28;20415;-68
2022/08/10 03:11:03;;;;;;;2.80;1.60;;;;;;;13.53;54.27;102845.91;5003800;28;20142;-66
2022/08/10 03:13:31;;;;;;;2.85;1.60;;;;;;;13.55;54.31;102845.88;5001249;28;20084;-67
2022/08/10 03:15:59;;;;;;;3.50;2.25;;;;;;;13.59;54.31;102844.94;5008397;28;20278;-67
2022/08/10 03:18:25;;;;;;;3.15;2.05;;;;;;;13.58;54.01;102843.19;5004101;28;20125;-67
2022/08/10 03:20:53;;;;;;;4.45;2.10;;;;;;;13.52;54.05;102849.44;5016979;28;20041;-68
2022/08/10 03:23:22;;;;;;;2.00;1.63;;;;;;;13.38;53.89;102847.06;5003748;28;20049;-67
2022/08/10 03:25:51;;;;;;;2.85;1.35;;;;;;;13.38;54.17;102851.47;4993587;28;20026;-70
2022/08/10 03:28:16;;;;;;;4.40;2.03;;;;;;;13.41;54.17;102847.03;5002944;28;20057;-66
2022/08/10 03:30:43;;;;;;;2.65;2.20;;;;;;;13.44;53.95;102849.56;5012915;28;20034;-67
2022/08/10 03:33:10;;;;;;;1.75;1.15;;;;;;;13.39;53.97;102851.44;5008855;28;20124;-69
2022/08/10 03:35:36;;;;;;;4.22;1.52;;;;;;;13.35;53.94;102857.66;5004509;28;20041;-68
2022/08/10 03:38:02;;;;;;;3.75;1.92;;;;;;;13.39;54.12;102854.06;5006482;28;20191;-67
2022/08/10 03:40:30;;;;;;;2.03;1.25;;;;;;;13.30;53.88;102854.25;4995484;28;20491;-68
2022/08/10 03:42:57;;;;;;;2.42;1.55;;;;;;;13.34;54.22;102855.94;5001815;28;20037;-64
2022/08/10 03:45:25;;;;;;;3.22;1.95;;;;;;;13.39;53.90;102859.31;5007372;28;20033;-65
2022/08/10 03:47:53;;;;;;;4.25;2.08;;;;;;;13.38;53.79;102851.47;4999739;28;20064;-65
2022/08/10 03:50:20;;;;;;;2.50;2.05;;;;;;;13.29;54.12;102853.41;5006016;28;20061;-65
2022/08/10 03:52:47;;;;;;;3.00;1.67;;;;;;;13.34;54.16;102858.56;5018469;28;20115;-63
2022/08/10 03:55:15;;;;;;;3.15;1.90;;;;;;;13.32;54.03;102850.69;5006867;28;20725;-65
2022/08/10 03:57:41;;;;;;;2.42;1.55;;;;;;;13.32;53.99;102852.47;5007896;28;20060;-64
2022/08/10 04:00:08;;;;;;;3.25;1.60;;;;;;;13.32;54.04;102857.72;5004064;28;20057;-64
2022/08/10 04:02:34;;;;;;;3.42;1.50;;;;;;;13.28;54.21;102858.69;5005495;28;20056;-64
2022/08/10 04:05:00;;;;;;;2.47;2.10;;;;;;;13.30;54.28;102856.88;5010027;28;20030;-64
2022/08/10 04:07:25;;;;;;;2.30;1.70;;;;;;;13.33;54.05;102855.03;5001145;28;20410;-63
2022/08/10 04:09:52;;;;;;;2.55;1.20;;;;;;;13.30;54.23;102862.13;5003850;28;20479;-65
2022/08/10 04:12:18;;;;;;;1.98;1.38;;;;;;;13.31;54.18;102866.47;5003356;28;20042;-66
2022/08/10 04:14:44;;;;;;;1.63;1.20;;;;;;;13.36;53.94;102859.41;5003239;28;20124;-70
2022/08/10 04:17:10;;;;;;;2.95;1.75;;;;;;;13.32;54.23;102862.97;5003014;28;20507;-69
2022/08/10 04:19:46;;;;;;;2.80;1.92;;;;;;;13.31;54.19;102855.97;5002534;28;20167;-68
2022/08/10 04:22:25;;;;;;;3.38;1.92;;;;;;;13.39;54.49;102868.97;5003365;28;20127;-68
2022/08/10 04:24:58;;;;;;;3.20;1.45;;;;;;;13.57;54.02;102870.38;5001799;28;20034;-70
2022/08/10 04:27:24;;;;;;;4.10;2.40;;;;;;;13.62;54.15;102871.16;5005095;28;20509;-67
2022/08/10 04:29:50;;;;;;;5.05;2.20;;;;;;;13.76;53.87;102869.06;4996776;28;20403;-68
2022/08/10 04:32:19;;;;;;;5.10;2.30;;;;;;;13.75;54.00;102872.63;5003370;28;20055;-66
2022/08/10 04:34:46;;;;;;;4.80;2.33;;;;;;;13.82;54.09;102874.19;5003480;28;20041;-65
2022/08/10 04:37:14;;;;;;;2.88;2.33;;;;;;;13.78;54.10;102872.53;5001879;28;20050;-67
2022/08/10 04:39:40;;;;;;;4.40;2.13;;;;;;;13.78;54.28;102872.53;5004953;28;20132;-66
2022/08/10 04:42:06;;;;;;;4.28;2.65;;;;;;;13.80;54.82;102876.00;5000964;28;20054;-67
2022/08/10 04:44:32;;;;;;;5.35;2.33;;;;;;;13.80;54.96;102870.75;5004243;28;20138;-64
2022/08/10 04:46:58;;;;;;;3.97;2.55;;;;;;;13.92;54.90;102867.00;4999151;28;20148;-65
2022/08/10 04:49:23;;;;;;;2.72;1.88;;;;;;;14.06;54.58;102866.69;5002784;28;20034;-63
2022/08/10 04:51:48;;;;;;;2.67;1.77;;;;;;;14.12;54.68;102870.03;5000708;28;20038;-65
2022/08/10 04:54:14;;;;;;;5.72;2.65;;;;;;;14.28;54.58;102865.25;5002878;28;20065;-65
2022/08/10 04:56:40;;;;;;;4.05;3.05;;;;;;;14.31;54.44;102864.31;5005308;28;20044;-64
2022/08/10 04:59:07;;;;;;;3.38;2.50;;;;;;;14.33;54.87;102867.78;5003509;28;20079;-64
2022/08/10 05:01:34;;;;;;;5.53;2.78;;;;;;;14.50;54.29;102864.75;5001969;28;20030;-64
2022/08/10 05:03:59;;;;;;;3.40;2.10;;;;;;;14.59;54.24;102867.19;5002430;28;20149;-63
2022/08/10 05:06:25;;;;;;;5.75;2.70;;;;;;;14.62;54.46;102864.44;5015866;28;20045;-64
2022/08/10 05:08:50;;;;;;;4.60;2.30;;;;;;;14.66;54.34;102865.25;4998972;28;20041;-64
2022/08/10 05:11:16;;;;;;;5.07;2.67;;;;;;;14.80;54.47;102864.88;5003522;28;20034;-64
2022/08/10 05:13:41;;;;;;;3.33;2.30;;;;;;;14.92;54.47;102864.53;4997927;28;20106;-64
2022/08/10 05:16:06;;;;;;;3.03;2.13;;;;;;;15.05;54.17;102863.31;5004717;28;20098;-65
2022/08/10 05:18:32;;;;;;;3.10;2.53;;;;;;;15.13;54.20;102871.88;5014584;28;20037;-65
2022/08/10 05:20:57;;;;;;;3.85;2.72;;;;;;;15.26;54.09;102863.63;5000674;28;20048;-64
2022/08/10 05:23:23;;;;;;;4.00;2.03;;;;;;;15.38;54.02;102858.03;5016210;28;20045;-64
2022/08/10 05:25:48;;;;;;;4.05;2.90;;;;;;;15.37;53.73;102861.56;5003984;28;20165;-64
2022/08/10 05:28:14;;;;;;;3.92;1.80;;;;;;;15.41;54.12;102865.84;5000292;28;20326;-64
2022/08/10 05:30:39;;;;;;;3.78;1.92;;;;;;;15.54;54.07;102867.22;5002807;28;20121;-65
2022/08/10 05:33:04;;;;;;;4.72;2.72;;;;;;;16.14;53.82;102865.41;4999698;28;20112;-65
2022/08/10 05:35:31;;;;;;;3.40;2.53;;;;;;;18.19;49.28;102866.84;5002925;28;20742;-66
2022/08/10 05:37:58;;;;;;;4.28;2.20;;;;;;;19.59;44.73;102867.84;5014893;28;21048;-68
2022/08/10 05:40:24;;;;;;;4.57;1.90;;;;;;;19.36;44.74;102858.28;5008319;28;20034;-67
2022/08/10 05:42:50;;;;;;;7.35;2.78;;;;;;;19.86;43.85;102855.91;5000661;28;20100;-71
2022/08/10 05:45:22;;;;;;;2.40;1.20;;;;;;;22.37;39.86;102862.03;5003141;28;20041;-64
2022/08/10 05:47:48;;;;;;;3.38;1.25;;;;;;;24.13;35.34;102859.94;5015125;28;20049;-64
2022/08/10 05:50:16;;;;;;;2.28;1.67;;;;;;;25.37;31.74;102862.97;5002187;28;20037;-64
2022/08/10 05:52:41;;;;;;;2.05;0.85;;;;;;;26.26;30.91;102859.06;5000615;28;20094;-64
2022/08/10 05:55:08;;;;;;;1.75;0.88;;;;;;;27.18;27.88;102857.25;5003180;28;20837;-65
2022/08/10 05:57:35;;;;;;;1.30;0.88;;;;;;;27.53;28.14;102854.38;5002851;28;20497;-64
2022/08/10 06:00:09;;;;;;;1.20;0.75;;;;;;;27.74;27.64;102856.28;5002198;28;20037;-72
2022/08/10 06:02:44;;;;;;;1.33;0.73;;;;;;;28.08;28.22;102856.16;5000841;28;20417;-72
2022/08/10 06:05:15;;;;;;;3.20;1.58;;;;;;;28.67;26.34;102858.28;4999343;28;21138;-72
2022/08/10 06:07:50;;;;;;;2.17;1.00;;;;;;;27.96;28.07;102862.56;5001609;28;20395;-69
2022/08/10 06:10:16;;;;;;;1.73;0.88;;;;;;;27.89;28.29;102849.63;5003535;28;20142;-66
2022/08/10 06:14:59;;;;;;;3.70;1.17;;;;;;;28.73;27.60;102852.38;5013998;28;20142;-67
2022/08/10 06:15:37;;;;;;;3.80;0.90;;;;;;;29.46;25.37;102849.50;5002298;28;20037;-65
2022/08/10 06:18:04;;;;;;;0.85;0.50;;;;;;;29.23;26.37;102839.94;5000587;28;20056;-66
2022/08/10 06:20:30;;;;;;;1.48;0.65;;;;;;;28.50;27.23;102846.28;5009960;28;20034;-66
2022/08/10 06:22:59;;;;;;;0.98;0.82;;;;;;;28.44;26.53;102843.28;5001124;28;20084;-64
2022/08/10 06:25:25;;;;;;;1.42;0.80;;;;;;;28.96;25.63;102844.09;5005654;28;20033;-64
2022/08/10 06:27:55;;;;;;;1.13;0.60;;;;;;;29.14;26.44;102844.31;5000135;28;20053;-64
2022/08/10 06:30:22;;;;;;;1.73;0.43;;;;;;;29.10;25.90;102849.13;5002287;28;20359;-64
2022/08/10 06:32:49;;;;;;;6.03;0.93;;;;;;;29.22;24.70;102847.19;5001665;28;20041;-65
2022/08/10 06:35:16;;;;;;;2.88;0.85;;;;;;;29.63;25.40;102853.38;5003911;28;20061;-65
2022/08/10 06:37:43;;;;;;;0.82;0.57;;;;;;;28.79;26.25;102848.31;5000925;28;20077;-67
2022/08/10 06:40:10;;;;;;;1.23;0.80;;;;;;;29.21;25.41;102860.78;5001946;28;20052;-69
2022/08/10 06:42:40;;;;;;;2.38;0.50;;;;;;;29.97;25.09;102858.31;5008451;28;20042;-67
2022/08/10 06:45:12;;;;;;;2.90;0.57;;;;;;;30.32;23.22;102846.94;5000704;28;20898;-67
2022/08/10 06:47:47;;;;;;;1.40;0.40;;;;;;;29.58;24.78;102853.75;5001107;28;20065;-69
2022/08/10 06:50:18;;;;;;;1.60;0.85;;;;;;;29.37;24.87;102861.09;5005271;28;20541;-69
2022/08/10 06:52:47;;;;;;;1.63;0.73;;;;;;;28.39;25.88;102861.63;4996222;28;20073;-69
2022/08/10 06:55:17;;;;;;;0.98;0.52;;;;;;;29.48;25.38;102860.13;5005963;28;20057;-70
2022/08/10 06:57:43;;;;;;;2.97;0.80;;;;;;;29.42;24.49;102861.53;5004875;28;20045;-69
2022/08/10 07:00:12;;;;;;;1.58;0.82;;;;;;;29.98;23.81;102862.72;5006316;28;20041;-70
2022/08/10 07:02:53;;;;;;;1.98;0.70;;;;;;;29.96;24.26;102857.47;5004052;28;20554;-70
2022/08/10 07:05:21;;;;;;;0.90;0.35;;;;;;;28.72;24.98;102861.44;5013975;22;20568;-81
2022/08/10 07:07:49;;;;;;;2.85;0.82;;;;;;;29.25;24.43;102864.91;4994921;28;20057;-81
2022/08/10 07:10:21;;;;;;;0.70;0.50;;;;;;;30.07;23.10;102866.41;4997304;28;20034;-82
2022/08/10 07:12:49;;;;;;;0.82;0.30;;;;;;;30.29;22.84;102871.53;4996155;28;20120;-80
2022/08/10 07:15:17;;;;;;;2.08;0.60;;;;;;;29.63;23.30;102874.91;4982611;28;20030;-81
2022/08/10 07:21:32;;;;;;;3.80;0.90;;;;;;;29.16;24.07;102872.81;5005770;28;20060;-83
2022/08/10 07:24:03;;;;;;;0.82;0.50;;;;;;;29.87;22.51;102870.97;4979085;28;20058;-83
2022/08/10 07:26:56;;;;;;;1.23;0.70;;;;;;;30.47;22.01;102879.72;4980374;28;20518;-82
2022/08/10 07:36:51;;;;;;;2.40;0.47;;;;;;;30.96;21.70;102868.78;4999385;28;20048;-83
2022/08/10 07:39:58;;;;;;;;;;;;;;;;;;;;;
2022/08/10 07:54:14;;;;;;;2.15;0.52;;;;;;;31.72;21.32;102864.94;4977173;28;20091;-80
2022/08/10 07:56:49;;;;;;;1.17;0.45;;;;;;;32.02;20.91;102859.09;5016568;23;20066;-65
2022/08/10 07:59:21;;;;;;;1.50;0.40;;;;;;;31.54;20.02;102865.78;5003893;28;20041;-65
2022/08/10 08:01:50;;;;;;;3.28;0.40;;;;;;;32.57;19.64;102862.56;5000364;28;20167;-65
2022/08/10 08:04:18;;;;;;;1.25;0.40;;;;;;;33.17;19.06;102858.91;4985221;28;20042;-65
2022/08/10 08:06:46;;;;;;;4.28;2.10;;;;;;;33.36;18.63;102860.50;4976924;28;20070;-65
2022/08/10 08:09:11;;;;;;;1.55;0.50;;;;;;;33.40;18.13;102864.59;4999207;28;20478;-64
2022/08/10 08:11:42;;;;;;;1.48;0.50;;;;;;;33.90;17.52;102855.50;4985003;28;20232;-65
2022/08/10 08:14:11;;;;;;;0.32;0.15;;;;;;;34.14;17.12;102864.66;5000562;28;20105;-66
2022/08/10 08:16:42;;;;;;;3.83;0.30;;;;;;;33.20;17.76;102862.13;4975894;28;20065;-66
2022/08/10 08:19:09;;;;;;;0.50;0.20;;;;;;;33.01;18.06;102857.88;4999369;28;20048;-65
2022/08/10 08:21:37;;;;;;;4.80;0.40;;;;;;;33.19;18.13;102852.34;4985619;28;20109;-65
2022/08/10 08:24:04;;;;;;;3.50;0.30;;;;;;;32.46;18.92;102854.72;4984946;28;20086;-66
2022/08/10 08:26:30;;;;;;;0.50;0.20;;;;;;;32.19;19.35;102848.44;4984501;28;20288;-66
2022/08/10 08:28:57;;;;;;;2.08;0.30;;;;;;;33.06;18.56;102851.97;4984419;28;20161;-67
2022/08/10 08:31:23;;;;;;;0.70;0.30;;;;;;;33.07;18.22;102850.94;4999470;28;20038;-66
2022/08/10 08:33:51;;;;;;;0.82;0.20;;;;;;;33.08;18.66;102843.66;4972977;28;20509;-66
2022/08/10 08:36:19;;;;;;;0.90;0.40;;;;;;;33.24;19.46;102847.25;4982127;28;20037;-66
2022/08/10 08:38:46;;;;;;;1.10;0.30;;;;;;;32.92;19.46;102845.28;4981333;28;20049;-65
2022/08/10 08:41:26;;;;;;;2.25;0.30;;;;;;;33.73;18.14;102849.25;4981665;28;20061;-66
2022/08/10 08:43:51;;;;;;;1.85;0.45;;;;;;;33.96;18.09;102843.97;4978816;28;20129;-66
2022/08/10 08:46:44;;;;;;;2.40;0.57;;;;;;;33.15;17.73;102840.13;4984113;28;20042;-67
2022/08/10 08:49:22;;;;;;;3.60;0.45;;;;;;;31.90;20.04;102844.13;4981792;28;20050;-66
2022/08/10 08:52:17;;;;;;;2.05;0.50;;;;;;;31.91;19.18;102837.69;4982627;28;20022;-66
2022/08/10 08:54:58;;;;;;;0.50;0.20;;;;;;;32.37;19.92;102834.84;4997375;28;20525;-67
2022/08/10 08:57:50;;;;;;;2.55;0.30;;;;;;;33.30;17.97;102836.78;4998465;28;20077;-65
2022/08/10 09:00:22;;;;;;;0.90;0.50;;;;;;;32.86;18.30;102840.53;4984060;28;20087;-65
2022/08/10 09:02:57;;;;;;;1.05;0.30;;;;;;;32.54;19.04;102842.03;4982921;28;20177;-65
2022/08/10 09:05:25;;;;;;;0.70;0.25;;;;;;;32.50;19.22;102839.81;4999065;28;20510;-65
2022/08/10 09:08:16;;;;;;;3.50;0.50;;;;;;;33.17;19.43;102842.66;4981718;28;20046;-65
2022/08/10 09:11:18;;;;;;;0.60;0.20;;;;;;;33.74;18.06;102839.22;4982860;28;20048;-65
2022/08/10 09:13:48;;;;;;;2.55;0.50;;;;;;;33.61;17.95;102837.84;4996989;28;20046;-65
2022/08/10 09:16:28;;;;;;;1.17;0.40;;;;;;;32.20;19.20;102833.88;4997415;28;20796;-65
2022/08/10 09:19:22;;;;;;;1.48;0.35;;;;;;;31.06;20.01;102833.63;4982114;28;20056;-66
2022/08/10 09:21:56;;;;;;;0.60;0.45;;;;;;;30.44;20.81;102838.69;4989698;28;20030;-65
2022/08/10 09:24:40;;;;;;;2.03;0.30;;;;;;;29.93;21.35;102838.91;4983916;28;20081;-65
2022/08/10 09:27:40;;;;;;;0.95;0.30;;;;;;;28.95;22.60;102837.03;4998244;28;20050;-66
2022/08/10 09:30:07;;;;;;;0.70;0.22;;;;;;;28.29;23.93;102832.84;4978870;28;20133;-65
2022/08/10 09:32:48;;;;;;;2.72;0.30;;;;;;;28.29;24.27;102838.22;4998638;28;20058;-65
2022/08/10 09:35:17;;;;;;;1.15;0.40;;;;;;;27.80;24.33;102836.97;4998285;28;20037;-65
2022/08/10 09:37:59;;;;;;;2.33;0.47;;;;;;;28.20;23.67;102833.63;4982352;28;20042;-66
2022/08/10 09:40:36;;;;;;;4.07;0.38;;;;;;;28.33;23.21;102828.91;4985153;28;20041;-65
2022/08/10 09:43:08;;;;;;;1.42;0.30;;;;;;;28.30;23.00;102823.81;4980337;28;20519;-65
2022/08/10 09:45:45;;;;;;;2.28;0.22;;;;;;;28.41;23.62;102820.19;4981679;28;20531;-65
2022/08/10 09:48:40;;;;;;;3.03;0.30;;;;;;;28.50;23.78;102824.78;4981308;28;20474;-65
2022/08/10 09:51:49;;;;;;;0.75;0.35;;;;;;;28.49;23.02;102822.19;4984806;28;20208;-65
2022/08/10 09:54:28;;;;;;;0.57;0.20;;;;;;;27.08;25.10;102819.53;4983034;28;20072;-66
2022/08/10 09:57:38;;;;;;;0.98;0.20;;;;;;;27.10;25.31;102823.00;4982355;28;20064;-66
2022/08/10 10:00:09;;;;;;;1.33;0.30;;;;;;;27.40;25.08;102817.94;4981587;28;20048;-64
2022/08/10 10:02:57;;;;;;;;;;;;;;;28.30;23.27;102810.38;4982413;28;20066;-64
2022/08/10 10:05:48;;;;;;;0.95;0.25;;;;;;;27.78;23.68;102820.13;4982434;28;20049;-65
2022/08/10 10:08:25;;;;;;;1.42;0.40;;;;;;;27.41;24.14;102820.50;4978115;28;20602;-65
2022/08/10 10:10:56;;;;;;;1.33;0.30;;;;;;;27.68;23.69;102809.31;4982083;28;20483;-64
2022/08/10 10:13:58;;;;;;;1.77;0.35;;;;;;;27.94;23.50;102808.94;4980681;28;21139;-65
2022/08/10 10:16:40;;;;;;;1.33;0.40;;;;;;;27.74;24.38;102805.25;4993931;28;20041;-65
2022/08/10 10:19:36;;;;;;;2.03;0.30;;;;;;;28.13;24.75;102802.91;4960269;28;20066;-64
2022/08/10 10:22:35;;;;;;;1.27;0.63;;;;;;;28.37;23.64;102809.81;4970337;28;20232;-65
2022/08/10 10:25:02;;;;;;;3.17;0.32;;;;;;;27.76;23.11;102800.59;4986255;28;20034;-65
2022/08/10 10:27:46;;;;;;;5.43;0.47;;;;;;;27.76;23.79;102803.28;4982101;28;20042;-65
2022/08/10 10:30:13;;;;;;;0.85;0.30;;;;;;;28.02;23.62;102792.19;4995480;28;20042;-65
2022/08/10 10:32:57;;;;;;;3.65;0.70;;;;;;;27.38;23.47;102796.56;4994787;28;20455;-65
2022/08/10 10:35:36;;;;;;;0.60;0.30;;;;;;;27.34;24.86;102795.13;4983611;28;20038;-65
2022/08/10 10:38:07;;;;;;;1.83;0.20;;;;;;;27.81;23.40;102790.34;4979719;28;20054;-65
2022/08/10 10:41:02;;;;;;;3.33;0.95;;;;;;;28.25;24.38;102790.22;4981846;28;20042;-66
2022/08/10 10:43:30;;;;;;;1.35;0.20;;;;;;;28.07;23.56;102782.72;4995382;28;20398;-65
2022/08/10 10:46:10;;;;;;;3.03;0.50;;;;;;;27.93;22.80;102783.91;4995002;28;20038;-66
2022/08/10 10:48:57;;;;;;;1.02;0.32;;;;;;;28.07;23.64;102781.88;4982227;28;20129;-68
2022/08/10 10:51:31;;;;;;;1.45;0.30;;;;;;;28.60;23.37;102778.22;4982524;28;20151;-65
2022/08/10 10:53:57;;;;;;;2.00;0.40;;;;;;;28.63;22.22;102777.97;4980044;28;20245;-66
2022/08/10 10:56:29;;;;;;;1.77;0.95;;;;;;;28.43;24.15;102777.00;4982181;28;20042;-65
2022/08/10 10:59:05;;;;;;;3.03;0.73;;;;;;;28.12;23.41;102782.34;4981070;28;20067;-65
2022/08/10 11:01:46;;;;;;;0.90;0.20;;;;;;;27.69;24.52;102775.25;4980457;28;20443;-65
2022/08/10 11:04:50;;;;;;;1.65;0.68;;;;;;;27.89;23.88;102781.63;4980809;28;20450;-66
2022/08/10 11:07:37;;;;;;;1.10;0.60;;;;;;;28.45;23.55;102772.34;4977488;28;20108;-66
2022/08/10 11:10:15;;;;;;;0.55;0.20;;;;;;;28.28;22.79;102763.09;4979653;28;20030;-66
2022/08/10 11:12:46;;;;;;;0.73;0.25;;;;;;;28.58;22.85;102767.59;4994838;28;20046;-66
2022/08/10 11:15:34;;;;;;;6.25;0.38;;;;;;;28.55;22.83;102767.88;4982913;28;20486;-66
2022/08/10 11:18:23;;;;;;;0.95;0.30;;;;;;;28.81;23.13;102764.72;4978274;28;20200;-66
2022/08/10 11:21:03;;;;;;;3.20;0.30;;;;;;;28.70;23.35;102761.19;4965481;28;20043;-65
2022/08/10 11:23:41;;;;;;;2.83;0.47;;;;;;;28.98;23.21;102755.16;4981259;28;20566;-65
2022/08/10 11:26:24;;;;;;;1.58;0.47;;;;;;;28.99;23.18;102755.00;4984202;28;20038;-66
2022/08/10 11:29:05;;;;;;;0.45;0.20;;;;;;;28.62;23.43;102744.84;4980980;28;20144;-65
2022/08/10 11:31:43;;;;;;;1.88;0.50;;;;;;;28.22;23.68;102756.41;4980726;28;20110;-66
2022/08/10 11:34:21;;;;;;;3.10;0.20;;;;;;;28.50;23.22;102748.59;4981882;28;20038;-66
2022/08/10 11:36:46;;;;;;;8.68;0.40;;;;;;;28.65;23.35;102746.41;4977820;28;20049;-65
2022/08/10 11:39:42;;;;;;;1.15;0.20;;;;;;;28.72;23.29;102747.56;4977289;28;20046;-66
2022/08/10 11:42:22;;;;;;;1.60;0.30;;;;;;;29.03;22.39;102740.28;4984963;28;20101;-66
2022/08/10 11:44:58;;;;;;;4.63;0.40;;;;;;;28.70;21.92;102744.16;4983970;28;20040;-66
2022/08/10 11:47:40;;;;;;;2.22;0.30;;;;;;;28.79;22.31;102745.19;4983808;28;20430;-66
2022/08/10 11:50:22;;;;;;;3.22;0.30;;;;;;;29.25;21.70;102732.97;4985085;28;20101;-66
2022/08/10 11:53:07;;;;;;;3.90;0.43;;;;;;;28.85;22.23;102733.88;4999680;28;20042;-65
2022/08/10 11:55:33;;;;;;;1.75;0.32;;;;;;;28.96;23.81;102731.06;4986356;28;20048;-66
2022/08/10 11:59:55;;;;;;;6.78;0.40;;;;;;;28.93;23.24;102726.81;4978914;28;20151;-66
2022/08/10 12:00:50;;;;;;;1.80;0.20;;;;;;;29.02;23.72;102727.81;4981988;28;20034;-66
2022/08/10 12:03:19;;;;;;;2.65;0.25;;;;;;;29.09;23.59;102712.78;4979414;28;20057;-66
2022/08/10 12:05:47;;;;;;;2.25;0.30;;;;;;;29.02;22.00;102716.19;4997703;28;20352;-66
2022/08/10 12:08:18;;;;;;;1.17;0.30;;;;;;;28.30;24.14;102721.63;4981481;28;20042;-65
2022/08/10 12:10:46;;;;;;;4.35;0.60;;;;;;;28.53;23.62;102721.44;4983511;28;20072;-65
2022/08/10 12:13:25;;;;;;;1.17;0.30;;;;;;;28.96;23.11;102717.59;4978796;28;20077;-66
2022/08/10 12:16:03;;;;;;;1.55;0.40;;;;;;;29.09;23.16;102717.34;4996785;28;20068;-66
2022/08/10 12:18:46;;;;;;;1.33;0.30;;;;;;;29.00;22.59;102718.19;4981791;28;20045;-66